sensor_id;sensor_type;location;lat;lon;timestamp;P1;durP1;ratioP1;P2;durP2;ratioP2
35550;SDS011;21655;46.056;13.616;2023-05-15T00:01:46;4.43;;;1.10;;
35550;SDS011;21655;46.056;13.616;2023-05-15T00:04:11;4.55;;;1.58;;
35550;SDS011;21655;46.056;13.616;2023-05-15T00:06:37;4.70;;;1.25;;
35550;SDS011;21655;46.056;13.616;2023-05-15T00:09:02;3.92;;;1.40;;
35550;SDS011;21655;46.056;13.616;2023-05-15T00:11:28;5.95;;;1.15;;
35550;SDS011;21655;46.056;13.616;2023-05-15T00:13:53;2.20;;;1.00;;
35550;SDS011;21655;46.056;13.616;2023-05-15T00:16:19;5.15;;;1.00;;
35550;SDS011;21655;46.056;13.616;2023-05-15T00:18:44;2.13;;;1.08;;
35550;SDS011;21655;46.056;13.616;2023-05-15T00:21:10;5.88;;;1.10;;
35550;SDS011;21655;46.056;13.616;2023-05-15T00:23:35;3.25;;;1.10;;
35550;SDS011;21655;46.056;13.616;2023-05-15T00:26:01;2.33;;;0.93;;
35550;SDS011;21655;46.056;13.616;2023-05-15T00:28:26;2.33;;;1.10;;
35550;SDS011;21655;46.056;13.616;2023-05-15T00:30:52;3.80;;;1.05;;
35550;SDS011;21655;46.056;13.616;2023-05-15T00:33:18;3.50;;;1.10;;
35550;SDS011;21655;46.056;13.616;2023-05-15T00:35:43;6.32;;;1.00;;
35550;SDS011;21655;46.056;13.616;2023-05-15T00:38:09;5.63;;;1.08;;
35550;SDS011;21655;46.056;13.616;2023-05-15T00:40:35;3.08;;;1.00;;
35550;SDS011;21655;46.056;13.616;2023-05-15T00:43:02;5.30;;;1.35;;
35550;SDS011;21655;46.056;13.616;2023-05-15T00:45:28;2.17;;;1.02;;
35550;SDS011;21655;46.056;13.616;2023-05-15T00:47:54;5.28;;;1.10;;
35550;SDS011;21655;46.056;13.616;2023-05-15T00:50:22;4.95;;;1.17;;
35550;SDS011;21655;46.056;13.616;2023-05-15T00:52:48;2.13;;;1.05;;
35550;SDS011;21655;46.056;13.616;2023-05-15T00:55:14;2.60;;;1.10;;
35550;SDS011;21655;46.056;13.616;2023-05-15T00:57:40;8.48;;;1.48;;
35550;SDS011;21655;46.056;13.616;2023-05-15T01:00:08;7.32;;;1.40;;
35550;SDS011;21655;46.056;13.616;2023-05-15T01:02:37;3.60;;;1.17;;
35550;SDS011;21655;46.056;13.616;2023-05-15T01:05:03;4.20;;;1.52;;
35550;SDS011;21655;46.056;13.616;2023-05-15T01:07:29;6.53;;;1.40;;
35550;SDS011;21655;46.056;13.616;2023-05-15T01:09:58;7.03;;;1.20;;
35550;SDS011;21655;46.056;13.616;2023-05-15T01:12:25;8.02;;;1.83;;
35550;SDS011;21655;46.056;13.616;2023-05-15T01:14:54;3.85;;;1.10;;
35550;SDS011;21655;46.056;13.616;2023-05-15T01:17:20;2.35;;;1.05;;
35550;SDS011;21655;46.056;13.616;2023-05-15T01:19:46;4.90;;;1.20;;
35550;SDS011;21655;46.056;13.616;2023-05-15T01:22:18;6.00;;;1.65;;
35550;SDS011;21655;46.056;13.616;2023-05-15T01:30:37;3.65;;;1.17;;
35550;SDS011;21655;46.056;13.616;2023-05-15T01:33:21;2.85;;;1.05;;
35550;SDS011;21655;46.056;13.616;2023-05-15T01:38:54;5.53;;;1.42;;
35550;SDS011;21655;46.056;13.616;2023-05-15T01:43:56;4.60;;;1.20;;
35550;SDS011;21655;46.056;13.616;2023-05-15T01:46:26;3.17;;;1.20;;
35550;SDS011;21655;46.056;13.616;2023-05-15T01:48:55;9.38;;;1.48;;
35550;SDS011;21655;46.056;13.616;2023-05-15T01:51:24;2.75;;;1.00;;
35550;SDS011;21655;46.056;13.616;2023-05-15T01:53:52;6.45;;;1.67;;
35550;SDS011;21655;46.056;13.616;2023-05-15T01:56:18;6.55;;;1.55;;
35550;SDS011;21655;46.056;13.616;2023-05-15T01:58:46;10.65;;;1.50;;
35550;SDS011;21655;46.056;13.616;2023-05-15T02:01:12;4.05;;;1.50;;
35550;SDS011;21655;46.056;13.616;2023-05-15T02:03:39;4.60;;;0.98;;
35550;SDS011;21655;46.056;13.616;2023-05-15T02:06:06;7.30;;;1.20;;
35550;SDS011;21655;46.056;13.616;2023-05-15T02:08:33;1.98;;;1.00;;
35550;SDS011;21655;46.056;13.616;2023-05-15T02:10:59;6.18;;;1.58;;
35550;SDS011;21655;46.056;13.616;2023-05-15T02:13:26;4.57;;;1.92;;
35550;SDS011;21655;46.056;13.616;2023-05-15T02:15:52;5.47;;;2.08;;
35550;SDS011;21655;46.056;13.616;2023-05-15T02:18:18;5.65;;;2.00;;
35550;SDS011;21655;46.056;13.616;2023-05-15T02:20:43;4.78;;;1.77;;
35550;SDS011;21655;46.056;13.616;2023-05-15T02:23:09;3.67;;;1.30;;
35550;SDS011;21655;46.056;13.616;2023-05-15T02:28:21;5.95;;;1.67;;
35550;SDS011;21655;46.056;13.616;2023-05-15T02:30:59;5.32;;;2.00;;
35550;SDS011;21655;46.056;13.616;2023-05-15T02:33:47;7.90;;;1.60;;
35550;SDS011;21655;46.056;13.616;2023-05-15T02:36:18;4.05;;;1.25;;
35550;SDS011;21655;46.056;13.616;2023-05-15T02:38:47;4.30;;;1.33;;
35550;SDS011;21655;46.056;13.616;2023-05-15T02:41:15;2.75;;;1.30;;
35550;SDS011;21655;46.056;13.616;2023-05-15T02:43:42;5.32;;;1.60;;
35550;SDS011;21655;46.056;13.616;2023-05-15T02:46:09;7.13;;;1.52;;
35550;SDS011;21655;46.056;13.616;2023-05-15T02:48:39;6.60;;;1.20;;
35550;SDS011;21655;46.056;13.616;2023-05-15T02:51:06;3.42;;;1.10;;
35550;SDS011;21655;46.056;13.616;2023-05-15T02:53:32;6.88;;;1.23;;
35550;SDS011;21655;46.056;13.616;2023-05-15T02:56:03;4.57;;;0.90;;
35550;SDS011;21655;46.056;13.616;2023-05-15T02:58:28;6.03;;;1.08;;
35550;SDS011;21655;46.056;13.616;2023-05-15T03:00:54;5.30;;;1.00;;
35550;SDS011;21655;46.056;13.616;2023-05-15T03:03:19;3.83;;;1.15;;
35550;SDS011;21655;46.056;13.616;2023-05-15T03:05:44;2.10;;;0.90;;
35550;SDS011;21655;46.056;13.616;2023-05-15T03:08:10;4.68;;;1.13;;
35550;SDS011;21655;46.056;13.616;2023-05-15T03:10:35;4.60;;;1.10;;
35550;SDS011;21655;46.056;13.616;2023-05-15T03:13:01;2.83;;;1.10;;
35550;SDS011;21655;46.056;13.616;2023-05-15T03:15:26;4.38;;;1.15;;
35550;SDS011;21655;46.056;13.616;2023-05-15T03:17:52;2.78;;;1.00;;
35550;SDS011;21655;46.056;13.616;2023-05-15T03:20:17;3.03;;;1.10;;
35550;SDS011;21655;46.056;13.616;2023-05-15T03:22:43;5.63;;;1.13;;
35550;SDS011;21655;46.056;13.616;2023-05-15T03:25:09;4.00;;;1.20;;
35550;SDS011;21655;46.056;13.616;2023-05-15T03:27:35;4.78;;;1.10;;
35550;SDS011;21655;46.056;13.616;2023-05-15T03:30:02;4.68;;;1.05;;
35550;SDS011;21655;46.056;13.616;2023-05-15T03:32:28;2.55;;;1.00;;
35550;SDS011;21655;46.056;13.616;2023-05-15T03:34:53;2.92;;;1.08;;
35550;SDS011;21655;46.056;13.616;2023-05-15T03:37:18;4.22;;;1.30;;
35550;SDS011;21655;46.056;13.616;2023-05-15T03:39:44;2.90;;;1.10;;
35550;SDS011;21655;46.056;13.616;2023-05-15T03:42:09;5.75;;;1.35;;
35550;SDS011;21655;46.056;13.616;2023-05-15T03:44:35;4.72;;;1.10;;
35550;SDS011;21655;46.056;13.616;2023-05-15T03:47:00;2.78;;;1.00;;
35550;SDS011;21655;46.056;13.616;2023-05-15T03:49:26;8.23;;;2.10;;
35550;SDS011;21655;46.056;13.616;2023-05-15T03:51:51;10.30;;;1.70;;
35550;SDS011;21655;46.056;13.616;2023-05-15T03:54:16;2.85;;;1.02;;
35550;SDS011;21655;46.056;13.616;2023-05-15T03:56:42;3.33;;;1.20;;
35550;SDS011;21655;46.056;13.616;2023-05-15T03:59:08;4.75;;;1.30;;
35550;SDS011;21655;46.056;13.616;2023-05-15T04:01:33;5.68;;;1.17;;
35550;SDS011;21655;46.056;13.616;2023-05-15T04:03:59;3.10;;;0.82;;
35550;SDS011;21655;46.056;13.616;2023-05-15T04:06:24;4.78;;;0.93;;
35550;SDS011;21655;46.056;13.616;2023-05-15T04:08:50;5.75;;;1.30;;
35550;SDS011;21655;46.056;13.616;2023-05-15T04:11:15;4.20;;;1.00;;
35550;SDS011;21655;46.056;13.616;2023-05-15T04:13:41;2.58;;;0.98;;
35550;SDS011;21655;46.056;13.616;2023-05-15T04:16:06;2.47;;;0.98;;
35550;SDS011;21655;46.056;13.616;2023-05-15T04:18:32;4.80;;;0.90;;
35550;SDS011;21655;46.056;13.616;2023-05-15T04:20:58;3.55;;;0.88;;
35550;SDS011;21655;46.056;13.616;2023-05-15T04:23:23;3.55;;;0.80;;
35550;SDS011;21655;46.056;13.616;2023-05-15T04:25:48;5.30;;;1.00;;
35550;SDS011;21655;46.056;13.616;2023-05-15T04:28:18;3.80;;;1.10;;
35550;SDS011;21655;46.056;13.616;2023-05-15T04:30:45;2.28;;;0.80;;
35550;SDS011;21655;46.056;13.616;2023-05-15T04:33:11;2.72;;;0.70;;
35550;SDS011;21655;46.056;13.616;2023-05-15T04:35:36;3.83;;;0.88;;
35550;SDS011;21655;46.056;13.616;2023-05-15T04:38:02;4.68;;;1.50;;
35550;SDS011;21655;46.056;13.616;2023-05-15T04:40:27;2.40;;;1.10;;
35550;SDS011;21655;46.056;13.616;2023-05-15T04:42:53;5.65;;;1.25;;
35550;SDS011;21655;46.056;13.616;2023-05-15T04:45:18;2.88;;;1.00;;
35550;SDS011;21655;46.056;13.616;2023-05-15T04:47:44;5.18;;;1.38;;
35550;SDS011;21655;46.056;13.616;2023-05-15T04:50:09;2.75;;;1.10;;
35550;SDS011;21655;46.056;13.616;2023-05-15T04:52:35;1.90;;;0.93;;
35550;SDS011;21655;46.056;13.616;2023-05-15T04:55:00;6.63;;;1.02;;
35550;SDS011;21655;46.056;13.616;2023-05-15T04:57:26;4.97;;;1.08;;
35550;SDS011;21655;46.056;13.616;2023-05-15T04:59:52;2.53;;;0.80;;
35550;SDS011;21655;46.056;13.616;2023-05-15T05:02:20;6.43;;;1.20;;
35550;SDS011;21655;46.056;13.616;2023-05-15T05:04:46;6.07;;;1.63;;
35550;SDS011;21655;46.056;13.616;2023-05-15T05:07:11;2.60;;;0.98;;
35550;SDS011;21655;46.056;13.616;2023-05-15T05:09:38;4.85;;;1.45;;
35550;SDS011;21655;46.056;13.616;2023-05-15T05:12:04;3.25;;;0.77;;
35550;SDS011;21655;46.056;13.616;2023-05-15T05:14:33;4.13;;;0.90;;
35550;SDS011;21655;46.056;13.616;2023-05-15T05:16:58;4.07;;;0.93;;
35550;SDS011;21655;46.056;13.616;2023-05-15T05:19:24;3.95;;;0.80;;
35550;SDS011;21655;46.056;13.616;2023-05-15T05:21:50;1.95;;;0.95;;
35550;SDS011;21655;46.056;13.616;2023-05-15T05:24:15;5.22;;;1.20;;
35550;SDS011;21655;46.056;13.616;2023-05-15T05:26:44;6.03;;;1.05;;
35550;SDS011;21655;46.056;13.616;2023-05-15T05:29:09;6.75;;;1.08;;
35550;SDS011;21655;46.056;13.616;2023-05-15T05:31:35;2.75;;;1.02;;
35550;SDS011;21655;46.056;13.616;2023-05-15T05:34:00;2.67;;;0.60;;
35550;SDS011;21655;46.056;13.616;2023-05-15T05:36:26;3.22;;;0.70;;
35550;SDS011;21655;46.056;13.616;2023-05-15T05:38:51;1.88;;;0.55;;
35550;SDS011;21655;46.056;13.616;2023-05-15T05:41:17;1.83;;;0.68;;
35550;SDS011;21655;46.056;13.616;2023-05-15T05:43:42;2.00;;;0.70;;
35550;SDS011;21655;46.056;13.616;2023-05-15T05:46:08;4.20;;;0.88;;
35550;SDS011;21655;46.056;13.616;2023-05-15T05:48:33;5.53;;;0.90;;
35550;SDS011;21655;46.056;13.616;2023-05-15T05:50:59;3.60;;;0.70;;
35550;SDS011;21655;46.056;13.616;2023-05-15T05:53:24;5.38;;;0.80;;
35550;SDS011;21655;46.056;13.616;2023-05-15T05:55:50;1.92;;;0.70;;
35550;SDS011;21655;46.056;13.616;2023-05-15T05:58:15;1.10;;;0.60;;
35550;SDS011;21655;46.056;13.616;2023-05-15T06:00:42;2.83;;;0.80;;
35550;SDS011;21655;46.056;13.616;2023-05-15T06:03:08;3.63;;;0.60;;
35550;SDS011;21655;46.056;13.616;2023-05-15T06:05:33;6.15;;;0.77;;
35550;SDS011;21655;46.056;13.616;2023-05-15T06:07:59;4.70;;;0.63;;
35550;SDS011;21655;46.056;13.616;2023-05-15T06:10:26;0.98;;;0.52;;
35550;SDS011;21655;46.056;13.616;2023-05-15T06:12:51;2.38;;;0.60;;
35550;SDS011;21655;46.056;13.616;2023-05-15T06:15:17;1.15;;;0.60;;
35550;SDS011;21655;46.056;13.616;2023-05-15T06:17:42;1.45;;;0.57;;
35550;SDS011;21655;46.056;13.616;2023-05-15T06:20:08;2.38;;;0.60;;
35550;SDS011;21655;46.056;13.616;2023-05-15T06:22:36;0.57;;;0.43;;
35550;SDS011;21655;46.056;13.616;2023-05-15T06:25:05;1.85;;;0.47;;
35550;SDS011;21655;46.056;13.616;2023-05-15T06:27:37;1.75;;;0.50;;
35550;SDS011;21655;46.056;13.616;2023-05-15T06:30:03;1.10;;;0.60;;
35550;SDS011;21655;46.056;13.616;2023-05-15T06:32:29;6.18;;;0.70;;
35550;SDS011;21655;46.056;13.616;2023-05-15T06:34:55;1.98;;;0.60;;
35550;SDS011;21655;46.056;13.616;2023-05-15T06:37:20;0.35;;;0.35;;
35550;SDS011;21655;46.056;13.616;2023-05-15T06:39:45;0.60;;;0.50;;
35550;SDS011;21655;46.056;13.616;2023-05-15T06:42:11;1.30;;;0.50;;
35550;SDS011;21655;46.056;13.616;2023-05-15T06:44:36;0.82;;;0.52;;
35550;SDS011;21655;46.056;13.616;2023-05-15T06:47:02;3.92;;;0.70;;
35550;SDS011;21655;46.056;13.616;2023-05-15T06:49:27;5.90;;;0.60;;
35550;SDS011;21655;46.056;13.616;2023-05-15T06:51:53;2.72;;;0.50;;
35550;SDS011;21655;46.056;13.616;2023-05-15T06:54:19;5.88;;;1.83;;
35550;SDS011;21655;46.056;13.616;2023-05-15T06:56:44;1.65;;;0.60;;
35550;SDS011;21655;46.056;13.616;2023-05-15T06:59:10;1.88;;;0.60;;
35550;SDS011;21655;46.056;13.616;2023-05-15T07:01:35;2.10;;;0.68;;
35550;SDS011;21655;46.056;13.616;2023-05-15T07:04:02;2.42;;;0.40;;
35550;SDS011;21655;46.056;13.616;2023-05-15T07:06:27;2.92;;;0.80;;
35550;SDS011;21655;46.056;13.616;2023-05-15T07:08:53;4.25;;;0.60;;
35550;SDS011;21655;46.056;13.616;2023-05-15T07:11:18;2.65;;;0.47;;
35550;SDS011;21655;46.056;13.616;2023-05-15T07:13:44;2.15;;;0.68;;
35550;SDS011;21655;46.056;13.616;2023-05-15T07:16:09;3.03;;;0.70;;
35550;SDS011;21655;46.056;13.616;2023-05-15T07:18:35;2.85;;;0.40;;
35550;SDS011;21655;46.056;13.616;2023-05-15T07:21:00;0.88;;;0.52;;
35550;SDS011;21655;46.056;13.616;2023-05-15T07:23:26;3.13;;;0.50;;
35550;SDS011;21655;46.056;13.616;2023-05-15T07:25:52;3.05;;;0.63;;
35550;SDS011;21655;46.056;13.616;2023-05-15T07:28:18;4.07;;;0.60;;
35550;SDS011;21655;46.056;13.616;2023-05-15T07:30:44;1.30;;;0.70;;
35550;SDS011;21655;46.056;13.616;2023-05-15T07:33:09;2.78;;;0.52;;
35550;SDS011;21655;46.056;13.616;2023-05-15T07:35:34;0.65;;;0.40;;
35550;SDS011;21655;46.056;13.616;2023-05-15T07:38:00;1.70;;;0.73;;
35550;SDS011;21655;46.056;13.616;2023-05-15T07:40:25;2.80;;;0.63;;
35550;SDS011;21655;46.056;13.616;2023-05-15T07:42:51;2.83;;;0.75;;
35550;SDS011;21655;46.056;13.616;2023-05-15T07:45:16;0.98;;;0.57;;
35550;SDS011;21655;46.056;13.616;2023-05-15T07:47:43;2.28;;;0.40;;
35550;SDS011;21655;46.056;13.616;2023-05-15T07:50:10;2.05;;;0.45;;
35550;SDS011;21655;46.056;13.616;2023-05-15T07:52:36;3.42;;;0.60;;
35550;SDS011;21655;46.056;13.616;2023-05-15T07:55:01;3.10;;;0.50;;
35550;SDS011;21655;46.056;13.616;2023-05-15T07:57:27;2.00;;;0.70;;
35550;SDS011;21655;46.056;13.616;2023-05-15T07:59:52;6.45;;;0.60;;
35550;SDS011;21655;46.056;13.616;2023-05-15T08:02:18;1.15;;;0.50;;
35550;SDS011;21655;46.056;13.616;2023-05-15T08:04:43;5.05;;;1.40;;
35550;SDS011;21655;46.056;13.616;2023-05-15T08:07:09;2.30;;;0.70;;
35550;SDS011;21655;46.056;13.616;2023-05-15T08:09:34;1.15;;;0.50;;
35550;SDS011;21655;46.056;13.616;2023-05-15T08:12:20;2.33;;;0.52;;
35550;SDS011;21655;46.056;13.616;2023-05-15T08:14:50;2.63;;;0.40;;
35550;SDS011;21655;46.056;13.616;2023-05-15T08:17:17;1.10;;;0.50;;
35550;SDS011;21655;46.056;13.616;2023-05-15T08:19:43;1.23;;;0.40;;
35550;SDS011;21655;46.056;13.616;2023-05-15T08:22:09;0.70;;;0.30;;
35550;SDS011;21655;46.056;13.616;2023-05-15T08:24:35;1.27;;;0.50;;
35550;SDS011;21655;46.056;13.616;2023-05-15T08:27:01;1.70;;;0.50;;
35550;SDS011;21655;46.056;13.616;2023-05-15T08:29:28;0.77;;;0.35;;
35550;SDS011;21655;46.056;13.616;2023-05-15T08:31:53;0.47;;;0.22;;
35550;SDS011;21655;46.056;13.616;2023-05-15T08:34:19;0.80;;;0.30;;
35550;SDS011;21655;46.056;13.616;2023-05-15T08:36:44;1.23;;;0.30;;
35550;SDS011;21655;46.056;13.616;2023-05-15T08:39:09;0.40;;;0.30;;
35550;SDS011;21655;46.056;13.616;2023-05-15T08:41:37;1.20;;;0.30;;
35550;SDS011;21655;46.056;13.616;2023-05-15T08:44:08;1.60;;;0.40;;
35550;SDS011;21655;46.056;13.616;2023-05-15T08:46:35;1.65;;;0.50;;
35550;SDS011;21655;46.056;13.616;2023-05-15T08:49:01;1.10;;;0.30;;
35550;SDS011;21655;46.056;13.616;2023-05-15T08:51:34;1.65;;;0.40;;
35550;SDS011;21655;46.056;13.616;2023-05-15T08:53:59;0.80;;;0.32;;
35550;SDS011;21655;46.056;13.616;2023-05-15T08:56:25;1.40;;;0.40;;
35550;SDS011;21655;46.056;13.616;2023-05-15T08:58:51;1.60;;;0.55;;
35550;SDS011;21655;46.056;13.616;2023-05-15T09:01:17;2.35;;;0.65;;
35550;SDS011;21655;46.056;13.616;2023-05-15T09:03:42;1.20;;;0.40;;
35550;SDS011;21655;46.056;13.616;2023-05-15T09:06:07;1.20;;;0.40;;
35550;SDS011;21655;46.056;13.616;2023-05-15T09:08:34;1.33;;;0.40;;
35550;SDS011;21655;46.056;13.616;2023-05-15T09:11:01;1.75;;;0.40;;
35550;SDS011;21655;46.056;13.616;2023-05-15T09:13:28;1.05;;;0.22;;
35550;SDS011;21655;46.056;13.616;2023-05-15T09:15:55;0.40;;;0.20;;
35550;SDS011;21655;46.056;13.616;2023-05-15T09:18:20;0.52;;;0.32;;
35550;SDS011;21655;46.056;13.616;2023-05-15T09:20:46;0.90;;;0.47;;
35550;SDS011;21655;46.056;13.616;2023-05-15T09:23:21;2.80;;;0.40;;
35550;SDS011;21655;46.056;13.616;2023-05-15T09:25:48;0.52;;;0.35;;
35550;SDS011;21655;46.056;13.616;2023-05-15T09:28:24;3.30;;;1.10;;
35550;SDS011;21655;46.056;13.616;2023-05-15T09:30:58;1.27;;;0.57;;
35550;SDS011;21655;46.056;13.616;2023-05-15T09:33:35;0.90;;;0.40;;
35550;SDS011;21655;46.056;13.616;2023-05-15T09:36:06;1.90;;;0.60;;
35550;SDS011;21655;46.056;13.616;2023-05-15T09:38:33;1.17;;;0.40;;
35550;SDS011;21655;46.056;13.616;2023-05-15T09:41:04;1.25;;;0.40;;
35550;SDS011;21655;46.056;13.616;2023-05-15T09:43:34;0.47;;;0.30;;
35550;SDS011;21655;46.056;13.616;2023-05-15T09:46:01;1.42;;;0.35;;
35550;SDS011;21655;46.056;13.616;2023-05-15T09:48:27;0.20;;;0.20;;
35550;SDS011;21655;46.056;13.616;2023-05-15T09:50:53;0.32;;;0.30;;
35550;SDS011;21655;46.056;13.616;2023-05-15T09:53:18;0.50;;;0.40;;
35550;SDS011;21655;46.056;13.616;2023-05-15T09:55:46;0.65;;;0.30;;
35550;SDS011;21655;46.056;13.616;2023-05-15T09:58:12;1.35;;;0.32;;
35550;SDS011;21655;46.056;13.616;2023-05-15T10:00:40;1.15;;;0.50;;
35550;SDS011;21655;46.056;13.616;2023-05-15T10:03:06;2.72;;;0.50;;
35550;SDS011;21655;46.056;13.616;2023-05-15T10:05:33;0.30;;;0.30;;
35550;SDS011;21655;46.056;13.616;2023-05-15T10:07:59;3.30;;;0.43;;
35550;SDS011;21655;46.056;13.616;2023-05-15T10:10:25;0.60;;;0.30;;
35550;SDS011;21655;46.056;13.616;2023-05-15T10:12:52;2.40;;;0.40;;
35550;SDS011;21655;46.056;13.616;2023-05-15T10:15:20;1.02;;;0.30;;
35550;SDS011;21655;46.056;13.616;2023-05-15T10:17:47;2.10;;;0.40;;
35550;SDS011;21655;46.056;13.616;2023-05-15T10:20:15;1.75;;;0.43;;
35550;SDS011;21655;46.056;13.616;2023-05-15T10:22:42;1.60;;;0.40;;
35550;SDS011;21655;46.056;13.616;2023-05-15T10:25:25;0.60;;;0.30;;
35550;SDS011;21655;46.056;13.616;2023-05-15T10:27:57;0.93;;;0.47;;
35550;SDS011;21655;46.056;13.616;2023-05-15T10:30:23;2.22;;;0.68;;
35550;SDS011;21655;46.056;13.616;2023-05-15T10:32:50;1.10;;;0.57;;
35550;SDS011;21655;46.056;13.616;2023-05-15T10:35:16;0.90;;;0.50;;
35550;SDS011;21655;46.056;13.616;2023-05-15T10:37:43;1.33;;;0.50;;
35550;SDS011;21655;46.056;13.616;2023-05-15T10:40:11;0.73;;;0.40;;
35550;SDS011;21655;46.056;13.616;2023-05-15T10:42:37;0.95;;;0.40;;
35550;SDS011;21655;46.056;13.616;2023-05-15T10:45:06;2.10;;;0.40;;
35550;SDS011;21655;46.056;13.616;2023-05-15T10:47:32;4.05;;;0.60;;
35550;SDS011;21655;46.056;13.616;2023-05-15T10:50:00;0.73;;;0.50;;
35550;SDS011;21655;46.056;13.616;2023-05-15T10:52:25;3.58;;;0.60;;
35550;SDS011;21655;46.056;13.616;2023-05-15T10:54:51;1.02;;;0.50;;
35550;SDS011;21655;46.056;13.616;2023-05-15T10:57:19;2.15;;;0.70;;
35550;SDS011;21655;46.056;13.616;2023-05-15T10:59:45;3.17;;;0.52;;
35550;SDS011;21655;46.056;13.616;2023-05-15T11:02:21;1.45;;;0.60;;
35550;SDS011;21655;46.056;13.616;2023-05-15T11:04:47;0.98;;;0.47;;
35550;SDS011;21655;46.056;13.616;2023-05-15T11:07:18;3.13;;;0.60;;
35550;SDS011;21655;46.056;13.616;2023-05-15T11:09:45;1.95;;;0.60;;
35550;SDS011;21655;46.056;13.616;2023-05-15T11:12:10;1.50;;;0.52;;
35550;SDS011;21655;46.056;13.616;2023-05-15T11:14:37;3.20;;;0.60;;
35550;SDS011;21655;46.056;13.616;2023-05-15T11:17:13;0.57;;;0.40;;
35550;SDS011;21655;46.056;13.616;2023-05-15T11:24:57;3.08;;;0.85;;
35550;SDS011;21655;46.056;13.616;2023-05-15T11:27:32;2.60;;;0.50;;
35550;SDS011;21655;46.056;13.616;2023-05-15T11:35:20;1.27;;;0.50;;
35550;SDS011;21655;46.056;13.616;2023-05-15T11:38:18;2.33;;;0.60;;
35550;SDS011;21655;46.056;13.616;2023-05-15T11:40:52;3.03;;;1.20;;
35550;SDS011;21655;46.056;13.616;2023-05-15T11:43:32;3.47;;;0.70;;
35550;SDS011;21655;46.056;13.616;2023-05-15T11:48:31;2.83;;;0.60;;
35550;SDS011;21655;46.056;13.616;2023-05-15T11:51:00;1.25;;;0.50;;
35550;SDS011;21655;46.056;13.616;2023-05-15T11:53:26;2.10;;;0.88;;
35550;SDS011;21655;46.056;13.616;2023-05-15T11:55:53;7.50;;;1.75;;
35550;SDS011;21655;46.056;13.616;2023-05-15T11:58:20;1.23;;;0.57;;
35550;SDS011;21655;46.056;13.616;2023-05-15T12:00:47;4.85;;;0.80;;
35550;SDS011;21655;46.056;13.616;2023-05-15T12:03:14;3.22;;;0.70;;
35550;SDS011;21655;46.056;13.616;2023-05-15T12:05:41;9.00;;;0.85;;
35550;SDS011;21655;46.056;13.616;2023-05-15T12:08:10;4.05;;;1.00;;
35550;SDS011;21655;46.056;13.616;2023-05-15T12:10:42;2.72;;;1.00;;
35550;SDS011;21655;46.056;13.616;2023-05-15T12:13:10;4.80;;;0.98;;
35550;SDS011;21655;46.056;13.616;2023-05-15T12:15:43;5.45;;;1.40;;
35550;SDS011;21655;46.056;13.616;2023-05-15T12:18:10;6.43;;;1.25;;
35550;SDS011;21655;46.056;13.616;2023-05-15T12:20:36;2.35;;;0.80;;
35550;SDS011;21655;46.056;13.616;2023-05-15T12:23:04;4.55;;;1.00;;
35550;SDS011;21655;46.056;13.616;2023-05-15T12:25:34;4.97;;;1.13;;
35550;SDS011;21655;46.056;13.616;2023-05-15T12:28:02;4.13;;;1.23;;
35550;SDS011;21655;46.056;13.616;2023-05-15T12:30:29;6.32;;;1.08;;
35550;SDS011;21655;46.056;13.616;2023-05-15T12:33:02;5.35;;;1.02;;
35550;SDS011;21655;46.056;13.616;2023-05-15T12:35:31;3.28;;;0.70;;
35550;SDS011;21655;46.056;13.616;2023-05-15T12:37:58;2.13;;;0.70;;
35550;SDS011;21655;46.056;13.616;2023-05-15T12:40:24;5.93;;;0.63;;
35550;SDS011;21655;46.056;13.616;2023-05-15T12:42:50;2.80;;;0.60;;
35550;SDS011;21655;46.056;13.616;2023-05-15T12:45:21;2.53;;;0.50;;
35550;SDS011;21655;46.056;13.616;2023-05-15T12:47:47;2.85;;;0.60;;
35550;SDS011;21655;46.056;13.616;2023-05-15T12:50:14;2.85;;;0.52;;
35550;SDS011;21655;46.056;13.616;2023-05-15T12:52:51;1.98;;;0.50;;
35550;SDS011;21655;46.056;13.616;2023-05-15T12:55:21;2.38;;;0.60;;
35550;SDS011;21655;46.056;13.616;2023-05-15T12:57:49;5.18;;;0.60;;
35550;SDS011;21655;46.056;13.616;2023-05-15T13:00:15;1.83;;;0.60;;
35550;SDS011;21655;46.056;13.616;2023-05-15T13:02:44;1.70;;;0.50;;
35550;SDS011;21655;46.056;13.616;2023-05-15T13:05:10;1.48;;;0.47;;
35550;SDS011;21655;46.056;13.616;2023-05-15T13:07:37;2.58;;;0.50;;
35550;SDS011;21655;46.056;13.616;2023-05-15T13:10:06;2.97;;;0.50;;
35550;SDS011;21655;46.056;13.616;2023-05-15T13:12:39;2.70;;;1.30;;
35550;SDS011;21655;46.056;13.616;2023-05-15T13:15:07;1.75;;;0.50;;
35550;SDS011;21655;46.056;13.616;2023-05-15T13:18:02;3.22;;;0.50;;
35550;SDS011;21655;46.056;13.616;2023-05-15T13:23:08;2.55;;;0.70;;
35550;SDS011;21655;46.056;13.616;2023-05-15T13:25:35;1.85;;;0.45;;
35550;SDS011;21655;46.056;13.616;2023-05-15T13:28:01;3.33;;;0.75;;
35550;SDS011;21655;46.056;13.616;2023-05-15T13:30:28;1.80;;;0.60;;
35550;SDS011;21655;46.056;13.616;2023-05-15T13:32:54;4.57;;;0.47;;
35550;SDS011;21655;46.056;13.616;2023-05-15T13:35:20;3.10;;;0.50;;
35550;SDS011;21655;46.056;13.616;2023-05-15T13:37:46;10.55;;;1.60;;
35550;SDS011;21655;46.056;13.616;2023-05-15T13:40:12;2.17;;;0.50;;
35550;SDS011;21655;46.056;13.616;2023-05-15T13:42:40;3.55;;;0.60;;
35550;SDS011;21655;46.056;13.616;2023-05-15T13:45:07;1.60;;;0.50;;
35550;SDS011;21655;46.056;13.616;2023-05-15T13:47:33;1.45;;;0.50;;
35550;SDS011;21655;46.056;13.616;2023-05-15T13:49:59;0.73;;;0.40;;
35550;SDS011;21655;46.056;13.616;2023-05-15T13:52:25;1.42;;;0.65;;
35550;SDS011;21655;46.056;13.616;2023-05-15T13:54:51;2.65;;;0.73;;
35550;SDS011;21655;46.056;13.616;2023-05-15T13:57:17;0.65;;;0.40;;
35550;SDS011;21655;46.056;13.616;2023-05-15T13:59:43;1.33;;;0.50;;
35550;SDS011;21655;46.056;13.616;2023-05-15T14:02:08;1.17;;;0.50;;
35550;SDS011;21655;46.056;13.616;2023-05-15T14:04:34;1.40;;;0.50;;
35550;SDS011;21655;46.056;13.616;2023-05-15T14:07:00;4.03;;;0.60;;
35550;SDS011;21655;46.056;13.616;2023-05-15T14:09:25;1.90;;;0.70;;
35550;SDS011;21655;46.056;13.616;2023-05-15T14:11:51;1.85;;;0.60;;
35550;SDS011;21655;46.056;13.616;2023-05-15T14:14:16;0.82;;;0.60;;
35550;SDS011;21655;46.056;13.616;2023-05-15T14:16:41;0.50;;;0.40;;
35550;SDS011;21655;46.056;13.616;2023-05-15T14:19:07;1.33;;;0.50;;
35550;SDS011;21655;46.056;13.616;2023-05-15T14:21:32;2.45;;;0.73;;
35550;SDS011;21655;46.056;13.616;2023-05-15T14:23:58;1.48;;;0.55;;
35550;SDS011;21655;46.056;13.616;2023-05-15T14:26:24;1.20;;;0.50;;
35550;SDS011;21655;46.056;13.616;2023-05-15T14:28:49;2.53;;;0.63;;
35550;SDS011;21655;46.056;13.616;2023-05-15T14:31:15;1.92;;;0.60;;
35550;SDS011;21655;46.056;13.616;2023-05-15T14:33:40;0.73;;;0.50;;
35550;SDS011;21655;46.056;13.616;2023-05-15T14:36:06;1.80;;;0.45;;
35550;SDS011;21655;46.056;13.616;2023-05-15T14:38:31;1.92;;;0.70;;
35550;SDS011;21655;46.056;13.616;2023-05-15T14:40:57;1.92;;;0.60;;
35550;SDS011;21655;46.056;13.616;2023-05-15T14:43:22;1.25;;;0.50;;
35550;SDS011;21655;46.056;13.616;2023-05-15T14:45:51;1.08;;;0.50;;
35550;SDS011;21655;46.056;13.616;2023-05-15T14:48:16;2.42;;;0.52;;
35550;SDS011;21655;46.056;13.616;2023-05-15T14:50:43;0.60;;;0.40;;
35550;SDS011;21655;46.056;13.616;2023-05-15T14:53:08;2.38;;;0.60;;
35550;SDS011;21655;46.056;13.616;2023-05-15T14:55:34;1.13;;;0.50;;
35550;SDS011;21655;46.056;13.616;2023-05-15T14:57:59;1.52;;;0.60;;
35550;SDS011;21655;46.056;13.616;2023-05-15T15:00:25;4.43;;;0.70;;
35550;SDS011;21655;46.056;13.616;2023-05-15T15:02:50;6.43;;;0.68;;